sensor_id;sensor_type;location;lat;lon;timestamp;P1;durP1;ratioP1;P2;durP2;ratioP2
77217;SDS011;66214;51.302;17.068;2024-01-30T00:01:34;16.80;;;7.40;;
77217;SDS011;66214;51.302;17.068;2024-01-30T00:04:02;12.60;;;5.00;;
77217;SDS011;66214;51.302;17.068;2024-01-30T00:06:30;16.70;;;7.30;;
77217;SDS011;66214;51.302;17.068;2024-01-30T00:08:59;18.80;;;6.50;;
77217;SDS011;66214;51.302;17.068;2024-01-30T00:11:27;15.90;;;6.10;;
77217;SDS011;66214;51.302;17.068;2024-01-30T00:13:56;18.20;;;7.00;;
77217;SDS011;66214;51.302;17.068;2024-01-30T00:16:25;17.80;;;7.40;;
77217;SDS011;66214;51.302;17.068;2024-01-30T00:18:53;16.70;;;6.60;;
77217;SDS011;66214;51.302;17.068;2024-01-30T00:21:22;18.00;;;7.10;;
77217;SDS011;66214;51.302;17.068;2024-01-30T00:23:51;16.70;;;6.40;;
77217;SDS011;66214;51.302;17.068;2024-01-30T00:26:19;18.90;;;7.30;;
77217;SDS011;66214;51.302;17.068;2024-01-30T00:28:48;17.60;;;6.70;;
77217;SDS011;66214;51.302;17.068;2024-01-30T00:31:16;16.00;;;6.70;;
77217;SDS011;66214;51.302;17.068;2024-01-30T00:33:44;16.10;;;6.60;;
77217;SDS011;66214;51.302;17.068;2024-01-30T00:36:13;13.60;;;5.60;;
77217;SDS011;66214;51.302;17.068;2024-01-30T00:38:41;16.00;;;6.60;;
77217;SDS011;66214;51.302;17.068;2024-01-30T00:41:09;15.10;;;6.80;;
77217;SDS011;66214;51.302;17.068;2024-01-30T00:43:37;17.70;;;6.00;;
77217;SDS011;66214;51.302;17.068;2024-01-30T00:49:32;17.90;;;6.60;;
77217;SDS011;66214;51.302;17.068;2024-01-30T05:03:44;15.30;;;6.80;;
77217;SDS011;66214;51.302;17.068;2024-01-30T05:06:12;15.40;;;6.80;;
77217;SDS011;66214;51.302;17.068;2024-01-30T05:08:41;17.20;;;7.30;;
77217;SDS011;66214;51.302;17.068;2024-01-30T05:11:09;17.10;;;8.20;;
77217;SDS011;66214;51.302;17.068;2024-01-30T05:13:38;20.60;;;8.10;;
77217;SDS011;66214;51.302;17.068;2024-01-30T05:16:06;17.40;;;7.30;;
77217;SDS011;66214;51.302;17.068;2024-01-30T05:18:35;19.60;;;7.40;;
77217;SDS011;66214;51.302;17.068;2024-01-30T05:21:03;17.70;;;7.10;;
77217;SDS011;66214;51.302;17.068;2024-01-30T05:23:32;21.20;;;8.10;;
77217;SDS011;66214;51.302;17.068;2024-01-30T05:26:00;17.30;;;7.00;;
77217;SDS011;66214;51.302;17.068;2024-01-30T05:28:29;11.90;;;4.30;;
77217;SDS011;66214;51.302;17.068;2024-01-30T05:30:58;22.20;;;8.10;;
77217;SDS011;66214;51.302;17.068;2024-01-30T05:33:26;19.40;;;8.40;;
77217;SDS011;66214;51.302;17.068;2024-01-30T05:35:54;19.60;;;8.40;;
77217;SDS011;66214;51.302;17.068;2024-01-30T05:38:22;19.10;;;7.70;;
77217;SDS011;66214;51.302;17.068;2024-01-30T05:40:50;17.40;;;7.60;;
77217;SDS011;66214;51.302;17.068;2024-01-30T05:43:18;19.00;;;8.20;;
77217;SDS011;66214;51.302;17.068;2024-01-30T05:45:46;16.70;;;6.80;;
77217;SDS011;66214;51.302;17.068;2024-01-30T05:48:14;20.30;;;8.20;;
77217;SDS011;66214;51.302;17.068;2024-01-30T05:50:42;16.50;;;7.10;;
77217;SDS011;66214;51.302;17.068;2024-01-30T05:53:11;16.40;;;7.30;;
77217;SDS011;66214;51.302;17.068;2024-01-30T05:55:39;18.20;;;8.00;;
77217;SDS011;66214;51.302;17.068;2024-01-30T05:58:07;18.80;;;7.60;;
77217;SDS011;66214;51.302;17.068;2024-01-30T06:00:35;17.40;;;7.00;;
77217;SDS011;66214;51.302;17.068;2024-01-30T06:06:22;13.80;;;5.80;;
77217;SDS011;66214;51.302;17.068;2024-01-30T06:08:50;21.70;;;8.60;;
77217;SDS011;66214;51.302;17.068;2024-01-30T06:11:18;16.80;;;7.30;;
77217;SDS011;66214;51.302;17.068;2024-01-30T06:13:46;16.80;;;7.20;;
77217;SDS011;66214;51.302;17.068;2024-01-30T06:19:27;17.80;;;7.50;;
77217;SDS011;66214;51.302;17.068;2024-01-30T06:21:55;17.70;;;6.60;;
77217;SDS011;66214;51.302;17.068;2024-01-30T06:24:26;15.00;;;6.60;;
77217;SDS011;66214;51.302;17.068;2024-01-30T06:26:56;22.50;;;8.00;;
77217;SDS011;66214;51.302;17.068;2024-01-30T06:29:24;17.30;;;7.50;;
77217;SDS011;66214;51.302;17.068;2024-01-30T06:31:54;15.90;;;6.00;;
77217;SDS011;66214;51.302;17.068;2024-01-30T06:34:22;16.90;;;7.70;;
77217;SDS011;66214;51.302;17.068;2024-01-30T06:36:50;19.60;;;8.70;;
77217;SDS011;66214;51.302;17.068;2024-01-30T06:39:18;17.70;;;7.70;;
77217;SDS011;66214;51.302;17.068;2024-01-30T06:41:46;16.00;;;7.10;;
77217;SDS011;66214;51.302;17.068;2024-01-30T06:44:15;19.80;;;7.60;;
77217;SDS011;66214;51.302;17.068;2024-01-30T06:46:43;19.10;;;7.80;;
77217;SDS011;66214;51.302;17.068;2024-01-30T06:49:11;19.80;;;7.50;;
77217;SDS011;66214;51.302;17.068;2024-01-30T06:51:39;15.50;;;6.30;;
77217;SDS011;66214;51.302;17.068;2024-01-30T06:54:07;14.10;;;6.30;;
77217;SDS011;66214;51.302;17.068;2024-01-30T06:56:36;15.00;;;6.90;;
77217;SDS011;66214;51.302;17.068;2024-01-30T06:59:04;17.60;;;7.40;;
77217;SDS011;66214;51.302;17.068;2024-01-30T07:01:33;20.30;;;8.10;;
77217;SDS011;66214;51.302;17.068;2024-01-30T07:04:02;19.70;;;8.50;;
77217;SDS011;66214;51.302;17.068;2024-01-30T07:06:30;13.70;;;6.60;;
77217;SDS011;66214;51.302;17.068;2024-01-30T07:08:59;18.10;;;7.50;;
77217;SDS011;66214;51.302;17.068;2024-01-30T07:11:27;18.40;;;6.10;;
77217;SDS011;66214;51.302;17.068;2024-01-30T07:13:56;16.10;;;6.90;;
77217;SDS011;66214;51.302;17.068;2024-01-30T07:19:43;21.10;;;7.80;;
77217;SDS011;66214;51.302;17.068;2024-01-30T07:22:11;11.40;;;5.00;;
77217;SDS011;66214;51.302;17.068;2024-01-30T07:24:43;21.90;;;8.60;;
77217;SDS011;66214;51.302;17.068;2024-01-30T07:27:17;21.90;;;6.80;;
77217;SDS011;66214;51.302;17.068;2024-01-30T07:29:45;17.90;;;7.40;;
77217;SDS011;66214;51.302;17.068;2024-01-30T07:32:13;19.30;;;8.50;;
77217;SDS011;66214;51.302;17.068;2024-01-30T07:34:41;16.50;;;7.20;;
77217;SDS011;66214;51.302;17.068;2024-01-30T07:37:10;21.10;;;8.50;;
77217;SDS011;66214;51.302;17.068;2024-01-30T07:39:39;18.70;;;8.00;;
77217;SDS011;66214;51.302;17.068;2024-01-30T07:42:07;17.40;;;7.80;;
77217;SDS011;66214;51.302;17.068;2024-01-30T07:44:36;17.30;;;7.90;;
77217;SDS011;66214;51.302;17.068;2024-01-30T07:47:05;18.00;;;8.20;;
77217;SDS011;66214;51.302;17.068;2024-01-30T07:49:33;18.80;;;8.20;;
77217;SDS011;66214;51.302;17.068;2024-01-30T07:52:01;16.40;;;7.30;;
77217;SDS011;66214;51.302;17.068;2024-01-30T07:54:30;17.80;;;7.40;;
77217;SDS011;66214;51.302;17.068;2024-01-30T07:57:01;21.70;;;8.10;;
77217;SDS011;66214;51.302;17.068;2024-01-30T07:59:29;18.00;;;8.40;;
77217;SDS011;66214;51.302;17.068;2024-01-30T08:03:45;17.40;;;7.90;;
77217;SDS011;66214;51.302;17.068;2024-01-30T08:06:14;21.10;;;7.70;;
77217;SDS011;66214;51.302;17.068;2024-01-30T08:08:42;18.80;;;8.80;;
77217;SDS011;66214;51.302;17.068;2024-01-30T08:11:10;19.10;;;8.00;;
77217;SDS011;66214;51.302;17.068;2024-01-30T08:13:38;20.60;;;7.90;;
77217;SDS011;66214;51.302;17.068;2024-01-30T08:16:06;19.70;;;8.30;;
77217;SDS011;66214;51.302;17.068;2024-01-30T08:18:34;19.40;;;8.40;;
77217;SDS011;66214;51.302;17.068;2024-01-30T08:21:02;18.80;;;7.60;;
77217;SDS011;66214;51.302;17.068;2024-01-30T08:23:31;19.00;;;8.40;;
77217;SDS011;66214;51.302;17.068;2024-01-30T08:25:59;15.60;;;6.70;;
77217;SDS011;66214;51.302;17.068;2024-01-30T08:28:27;20.90;;;9.00;;
77217;SDS011;66214;51.302;17.068;2024-01-30T08:30:56;18.60;;;8.20;;
77217;SDS011;66214;51.302;17.068;2024-01-30T08:33:24;19.60;;;8.20;;
77217;SDS011;66214;51.302;17.068;2024-01-30T08:35:53;19.40;;;7.70;;
77217;SDS011;66214;51.302;17.068;2024-01-30T08:38:22;22.60;;;8.80;;
77217;SDS011;66214;51.302;17.068;2024-01-30T08:40:50;21.40;;;8.70;;
77217;SDS011;66214;51.302;17.068;2024-01-30T08:43:18;21.40;;;9.80;;
77217;SDS011;66214;51.302;17.068;2024-01-30T08:45:47;17.20;;;7.10;;
77217;SDS011;66214;51.302;17.068;2024-01-30T08:48:15;20.10;;;8.70;;
77217;SDS011;66214;51.302;17.068;2024-01-30T08:50:43;19.30;;;8.40;;
77217;SDS011;66214;51.302;17.068;2024-01-30T08:53:11;19.70;;;7.90;;
77217;SDS011;66214;51.302;17.068;2024-01-30T08:55:40;19.30;;;8.10;;
77217;SDS011;66214;51.302;17.068;2024-01-30T08:58:08;18.60;;;8.40;;
77217;SDS011;66214;51.302;17.068;2024-01-30T09:00:36;20.20;;;8.40;;
77217;SDS011;66214;51.302;17.068;2024-01-30T09:03:04;18.60;;;7.60;;
77217;SDS011;66214;51.302;17.068;2024-01-30T09:05:34;22.80;;;8.50;;
77217;SDS011;66214;51.302;17.068;2024-01-30T09:08:02;17.80;;;7.50;;
77217;SDS011;66214;51.302;17.068;2024-01-30T09:10:30;20.70;;;8.20;;
77217;SDS011;66214;51.302;17.068;2024-01-30T09:12:59;17.20;;;6.90;;
77217;SDS011;66214;51.302;17.068;2024-01-30T09:15:27;20.30;;;7.90;;
77217;SDS011;66214;51.302;17.068;2024-01-30T09:17:56;17.00;;;7.70;;
77217;SDS011;66214;51.302;17.068;2024-01-30T09:20:24;16.80;;;7.50;;
77217;SDS011;66214;51.302;17.068;2024-01-30T09:22:53;14.90;;;6.60;;
77217;SDS011;66214;51.302;17.068;2024-01-30T09:25:22;14.50;;;5.50;;
77217;SDS011;66214;51.302;17.068;2024-01-30T09:27:50;14.70;;;6.80;;
77217;SDS011;66214;51.302;17.068;2024-01-30T09:30:19;14.40;;;7.00;;
77217;SDS011;66214;51.302;17.068;2024-01-30T09:32:47;18.70;;;6.70;;
77217;SDS011;66214;51.302;17.068;2024-01-30T09:35:15;17.70;;;6.60;;
77217;SDS011;66214;51.302;17.068;2024-01-30T09:37:43;13.30;;;6.50;;
77217;SDS011;66214;51.302;17.068;2024-01-30T09:40:11;15.30;;;6.60;;
77217;SDS011;66214;51.302;17.068;2024-01-30T09:42:40;17.10;;;6.70;;
77217;SDS011;66214;51.302;17.068;2024-01-30T09:45:10;13.60;;;6.10;;
77217;SDS011;66214;51.302;17.068;2024-01-30T09:47:42;12.90;;;6.30;;
77217;SDS011;66214;51.302;17.068;2024-01-30T09:50:13;15.00;;;5.90;;
77217;SDS011;66214;51.302;17.068;2024-01-30T09:52:45;14.10;;;5.80;;
77217;SDS011;66214;51.302;17.068;2024-01-30T09:55:14;13.40;;;6.50;;
77217;SDS011;66214;51.302;17.068;2024-01-30T09:57:43;13.80;;;6.30;;
77217;SDS011;66214;51.302;17.068;2024-01-30T10:00:12;13.90;;;6.90;;
77217;SDS011;66214;51.302;17.068;2024-01-30T10:02:40;14.70;;;6.70;;
77217;SDS011;66214;51.302;17.068;2024-01-30T10:05:09;13.90;;;6.70;;
77217;SDS011;66214;51.302;17.068;2024-01-30T10:07:38;13.70;;;7.00;;
77217;SDS011;66214;51.302;17.068;2024-01-30T10:10:18;13.20;;;6.00;;
77217;SDS011;66214;51.302;17.068;2024-01-30T10:12:46;11.90;;;6.40;;
77217;SDS011;66214;51.302;17.068;2024-01-30T10:15:14;13.60;;;6.00;;
77217;SDS011;66214;51.302;17.068;2024-01-30T10:17:44;10.40;;;4.90;;
77217;SDS011;66214;51.302;17.068;2024-01-30T10:20:13;13.00;;;5.60;;
77217;SDS011;66214;51.302;17.068;2024-01-30T10:22:41;13.40;;;5.60;;
77217;SDS011;66214;51.302;17.068;2024-01-30T10:25:13;12.90;;;5.80;;
77217;SDS011;66214;51.302;17.068;2024-01-30T10:27:43;13.00;;;5.70;;
77217;SDS011;66214;51.302;17.068;2024-01-30T10:30:11;14.00;;;5.20;;
77217;SDS011;66214;51.302;17.068;2024-01-30T10:32:40;12.60;;;4.90;;
77217;SDS011;66214;51.302;17.068;2024-01-30T10:35:08;12.10;;;4.90;;
77217;SDS011;66214;51.302;17.068;2024-01-30T10:37:36;13.70;;;5.20;;
77217;SDS011;66214;51.302;17.068;2024-01-30T10:40:05;12.50;;;5.20;;
77217;SDS011;66214;51.302;17.068;2024-01-30T10:42:36;10.30;;;4.60;;
77217;SDS011;66214;51.302;17.068;2024-01-30T10:45:07;9.90;;;4.80;;
77217;SDS011;66214;51.302;17.068;2024-01-30T10:47:37;11.30;;;4.70;;
77217;SDS011;66214;51.302;17.068;2024-01-30T10:50:07;9.80;;;4.60;;
77217;SDS011;66214;51.302;17.068;2024-01-30T10:52:37;11.50;;;4.90;;
77217;SDS011;66214;51.302;17.068;2024-01-30T10:55:06;11.00;;;4.60;;
77217;SDS011;66214;51.302;17.068;2024-01-30T10:57:35;9.60;;;4.00;;
77217;SDS011;66214;51.302;17.068;2024-01-30T11:00:09;10.50;;;4.50;;
77217;SDS011;66214;51.302;17.068;2024-01-30T11:03:45;8.50;;;4.30;;
77217;SDS011;66214;51.302;17.068;2024-01-30T11:06:14;8.30;;;3.60;;
77217;SDS011;66214;51.302;17.068;2024-01-30T11:08:46;10.00;;;5.20;;
77217;SDS011;66214;51.302;17.068;2024-01-30T11:11:16;9.80;;;3.90;;
77217;SDS011;66214;51.302;17.068;2024-01-30T11:13:44;8.90;;;4.10;;
77217;SDS011;66214;51.302;17.068;2024-01-30T11:16:13;9.10;;;4.60;;
77217;SDS011;66214;51.302;17.068;2024-01-30T11:18:41;9.90;;;4.40;;
77217;SDS011;66214;51.302;17.068;2024-01-30T11:21:13;10.30;;;4.40;;
77217;SDS011;66214;51.302;17.068;2024-01-30T11:23:42;9.60;;;4.80;;
77217;SDS011;66214;51.302;17.068;2024-01-30T11:26:11;10.10;;;4.70;;
77217;SDS011;66214;51.302;17.068;2024-01-30T11:28:39;10.80;;;4.40;;
77217;SDS011;66214;51.302;17.068;2024-01-30T11:31:08;12.20;;;4.80;;
77217;SDS011;66214;51.302;17.068;2024-01-30T11:33:36;10.40;;;4.50;;
77217;SDS011;66214;51.302;17.068;2024-01-30T11:36:06;9.80;;;3.80;;
77217;SDS011;66214;51.302;17.068;2024-01-30T11:38:34;11.90;;;4.10;;
77217;SDS011;66214;51.302;17.068;2024-01-30T11:41:04;9.00;;;4.20;;
77217;SDS011;66214;51.302;17.068;2024-01-30T11:43:32;10.20;;;4.60;;
77217;SDS011;66214;51.302;17.068;2024-01-30T11:46:02;10.10;;;4.70;;
77217;SDS011;66214;51.302;17.068;2024-01-30T11:48:31;9.10;;;4.20;;
77217;SDS011;66214;51.302;17.068;2024-01-30T11:51:00;9.60;;;4.50;;
77217;SDS011;66214;51.302;17.068;2024-01-30T11:53:28;9.40;;;4.40;;
77217;SDS011;66214;51.302;17.068;2024-01-30T11:55:56;7.80;;;3.80;;
77217;SDS011;66214;51.302;17.068;2024-01-30T11:58:27;9.00;;;4.50;;
77217;SDS011;66214;51.302;17.068;2024-01-30T12:00:56;9.70;;;4.10;;
77217;SDS011;66214;51.302;17.068;2024-01-30T12:03:24;9.80;;;4.10;;
77217;SDS011;66214;51.302;17.068;2024-01-30T12:05:57;7.50;;;3.40;;
77217;SDS011;66214;51.302;17.068;2024-01-30T12:08:26;7.70;;;3.50;;
77217;SDS011;66214;51.302;17.068;2024-01-30T12:10:56;9.50;;;3.70;;
77217;SDS011;66214;51.302;17.068;2024-01-30T12:13:26;8.10;;;3.60;;
77217;SDS011;66214;51.302;17.068;2024-01-30T12:19:26;8.70;;;4.10;;
77217;SDS011;66214;51.302;17.068;2024-01-30T12:21:57;8.50;;;3.50;;
77217;SDS011;66214;51.302;17.068;2024-01-30T12:24:28;9.60;;;4.40;;
77217;SDS011;66214;51.302;17.068;2024-01-30T12:26:59;11.60;;;4.70;;
77217;SDS011;66214;51.302;17.068;2024-01-30T12:29:32;10.20;;;4.10;;
77217;SDS011;66214;51.302;17.068;2024-01-30T12:32:01;8.70;;;3.60;;
77217;SDS011;66214;51.302;17.068;2024-01-30T12:34:29;8.70;;;3.90;;
77217;SDS011;66214;51.302;17.068;2024-01-30T12:36:57;11.30;;;4.40;;
77217;SDS011;66214;51.302;17.068;2024-01-30T12:39:25;9.10;;;4.20;;
77217;SDS011;66214;51.302;17.068;2024-01-30T12:41:53;11.30;;;4.20;;
77217;SDS011;66214;51.302;17.068;2024-01-30T12:44:21;9.60;;;4.50;;
77217;SDS011;66214;51.302;17.068;2024-01-30T12:46:50;10.00;;;4.30;;
77217;SDS011;66214;51.302;17.068;2024-01-30T12:49:18;12.20;;;4.30;;
77217;SDS011;66214;51.302;17.068;2024-01-30T12:51:46;8.80;;;3.70;;
77217;SDS011;66214;51.302;17.068;2024-01-30T12:54:14;8.50;;;3.80;;
77217;SDS011;66214;51.302;17.068;2024-01-30T12:56:42;8.60;;;4.00;;
77217;SDS011;66214;51.302;17.068;2024-01-30T12:59:11;10.70;;;4.00;;
77217;SDS011;66214;51.302;17.068;2024-01-30T13:01:39;10.80;;;4.90;;
77217;SDS011;66214;51.302;17.068;2024-01-30T13:04:07;10.10;;;3.90;;
77217;SDS011;66214;51.302;17.068;2024-01-30T13:06:36;10.30;;;4.00;;
77217;SDS011;66214;51.302;17.068;2024-01-30T13:09:04;10.20;;;3.80;;
77217;SDS011;66214;51.302;17.068;2024-01-30T13:11:33;9.50;;;4.00;;
77217;SDS011;66214;51.302;17.068;2024-01-30T13:14:02;11.30;;;4.00;;
77217;SDS011;66214;51.302;17.068;2024-01-30T13:16:31;12.50;;;4.70;;
77217;SDS011;66214;51.302;17.068;2024-01-30T13:18:59;12.40;;;4.80;;
77217;SDS011;66214;51.302;17.068;2024-01-30T13:21:29;9.50;;;3.80;;
77217;SDS011;66214;51.302;17.068;2024-01-30T13:23:57;10.40;;;4.40;;
77217;SDS011;66214;51.302;17.068;2024-01-30T13:26:26;10.20;;;4.00;;
77217;SDS011;66214;51.302;17.068;2024-01-30T13:28:54;14.80;;;4.50;;
77217;SDS011;66214;51.302;17.068;2024-01-30T13:31:22;13.00;;;4.20;;
77217;SDS011;66214;51.302;17.068;2024-01-30T13:33:50;9.40;;;3.50;;
77217;SDS011;66214;51.302;17.068;2024-01-30T13:36:18;9.30;;;4.20;;
77217;SDS011;66214;51.302;17.068;2024-01-30T13:38:47;11.60;;;4.40;;
77217;SDS011;66214;51.302;17.068;2024-01-30T13:41:15;11.00;;;4.50;;
77217;SDS011;66214;51.302;17.068;2024-01-30T13:43:44;11.70;;;4.60;;
77217;SDS011;66214;51.302;17.068;2024-01-30T13:46:14;10.20;;;4.50;;
77217;SDS011;66214;51.302;17.068;2024-01-30T13:48:46;11.40;;;4.10;;
77217;SDS011;66214;51.302;17.068;2024-01-30T13:51:15;9.10;;;4.20;;
77217;SDS011;66214;51.302;17.068;2024-01-30T13:53:46;10.70;;;4.30;;
77217;SDS011;66214;51.302;17.068;2024-01-30T13:56:14;10.10;;;4.00;;
77217;SDS011;66214;51.302;17.068;2024-01-30T13:58:42;10.30;;;4.30;;
77217;SDS011;66214;51.302;17.068;2024-01-30T14:03:45;11.50;;;3.90;;
77217;SDS011;66214;51.302;17.068;2024-01-30T14:06:13;8.90;;;4.00;;
77217;SDS011;66214;51.302;17.068;2024-01-30T14:08:42;12.80;;;4.30;;
77217;SDS011;66214;51.302;17.068;2024-01-30T14:11:11;11.60;;;4.20;;
77217;SDS011;66214;51.302;17.068;2024-01-30T14:13:40;10.90;;;4.80;;
77217;SDS011;66214;51.302;17.068;2024-01-30T14:16:10;9.50;;;4.20;;
77217;SDS011;66214;51.302;17.068;2024-01-30T14:18:38;9.80;;;3.40;;
77217;SDS011;66214;51.302;17.068;2024-01-30T14:21:08;9.60;;;4.10;;
77217;SDS011;66214;51.302;17.068;2024-01-30T14:23:38;10.50;;;3.50;;
77217;SDS011;66214;51.302;17.068;2024-01-30T14:26:08;8.80;;;4.20;;
77217;SDS011;66214;51.302;17.068;2024-01-30T14:28:37;13.50;;;4.30;;
77217;SDS011;66214;51.302;17.068;2024-01-30T14:31:05;11.00;;;4.50;;
77217;SDS011;66214;51.302;17.068;2024-01-30T14:33:34;11.80;;;4.70;;
77217;SDS011;66214;51.302;17.068;2024-01-30T14:36:03;9.30;;;4.60;;
77217;SDS011;66214;51.302;17.068;2024-01-30T14:38:32;9.90;;;3.40;;
77217;SDS011;66214;51.302;17.068;2024-01-30T14:41:00;9.40;;;4.30;;
77217;SDS011;66214;51.302;17.068;2024-01-30T14:43:32;13.00;;;4.80;;
77217;SDS011;66214;51.302;17.068;2024-01-30T14:46:00;11.50;;;4.70;;
77217;SDS011;66214;51.302;17.068;2024-01-30T14:48:28;9.80;;;3.30;;
77217;SDS011;66214;51.302;17.068;2024-01-30T14:50:58;9.30;;;3.70;;
77217;SDS011;66214;51.302;17.068;2024-01-30T14:53:26;11.60;;;4.80;;
77217;SDS011;66214;51.302;17.068;2024-01-30T14:55:55;12.70;;;5.60;;
77217;SDS011;66214;51.302;17.068;2024-01-30T14:58:23;10.70;;;4.80;;
77217;SDS011;66214;51.302;17.068;2024-01-30T15:00:51;14.60;;;5.30;;
77217;SDS011;66214;51.302;17.068;2024-01-30T15:03:19;10.50;;;4.80;;
77217;SDS011;66214;51.302;17.068;2024-01-30T15:05:48;12.00;;;5.10;;
77217;SDS011;66214;51.302;17.068;2024-01-30T15:08:17;10.50;;;4.70;;
77217;SDS011;66214;51.302;17.068;2024-01-30T15:10:45;11.20;;;5.40;;
77217;SDS011;66214;51.302;17.068;2024-01-30T15:13:15;12.00;;;5.10;;
77217;SDS011;66214;51.302;17.068;2024-01-30T15:15:44;11.20;;;4.80;;
77217;SDS011;66214;51.302;17.068;2024-01-30T15:18:12;10.60;;;5.00;;
77217;SDS011;66214;51.302;17.068;2024-01-30T15:20:41;11.20;;;5.20;;
77217;SDS011;66214;51.302;17.068;2024-01-30T15:23:11;11.90;;;6.00;;
77217;SDS011;66214;51.302;17.068;2024-01-30T15:25:39;13.40;;;5.70;;
77217;SDS011;66214;51.302;17.068;2024-01-30T15:28:07;14.90;;;5.90;;
77217;SDS011;66214;51.302;17.068;2024-01-30T15:30:37;14.60;;;6.20;;
77217;SDS011;66214;51.302;17.068;2024-01-30T15:36:40;12.50;;;5.00;;
77217;SDS011;66214;51.302;17.068;2024-01-30T15:39:08;12.70;;;5.60;;
77217;SDS011;66214;51.302;17.068;2024-01-30T15:41:39;12.20;;;5.50;;
77217;SDS011;66214;51.302;17.068;2024-01-30T15:44:07;13.70;;;5.80;;
77217;SDS011;66214;51.302;17.068;2024-01-30T15:46:36;14.60;;;6.00;;
77217;SDS011;66214;51.302;17.068;2024-01-30T15:49:04;14.60;;;5.40;;
77217;SDS011;66214;51.302;17.068;2024-01-30T15:51:32;14.10;;;7.00;;
77217;SDS011;66214;51.302;17.068;2024-01-30T15:54:00;14.00;;;6.10;;
77217;SDS011;66214;51.302;17.068;2024-01-30T15:56:29;15.50;;;6.20;;
77217;SDS011;66214;51.302;17.068;2024-01-30T15:58:57;17.60;;;7.80;;
77217;SDS011;66214;51.302;17.068;2024-01-30T16:01:26;14.70;;;6.90;;
77217;SDS011;66214;51.302;17.068;2024-01-30T16:03:55;14.70;;;6.50;;
77217;SDS011;66214;51.302;17.068;2024-01-30T16:06:23;14.40;;;6.10;;
77217;SDS011;66214;51.302;17.068;2024-01-30T16:08:51;14.10;;;6.70;;
77217;SDS011;66214;51.302;17.068;2024-01-30T16:11:19;14.10;;;6.80;;
77217;SDS011;66214;51.302;17.068;2024-01-30T16:13:47;16.50;;;6.20;;
77217;SDS011;66214;51.302;17.068;2024-01-30T16:16:20;17.20;;;7.20;;
77217;SDS011;66214;51.302;17.068;2024-01-30T16:18:50;16.10;;;6.90;;
77217;SDS011;66214;51.302;17.068;2024-01-30T16:21:19;15.40;;;6.10;;
77217;SDS011;66214;51.302;17.068;2024-01-30T16:23:48;15.20;;;6.20;;
77217;SDS011;66214;51.302;17.068;2024-01-30T16:26:18;18.40;;;7.40;;
77217;SDS011;66214;51.302;17.068;2024-01-30T16:28:47;24.60;;;8.90;;
77217;SDS011;66214;51.302;17.068;2024-01-30T16:31:16;18.60;;;7.60;;
77217;SDS011;66214;51.302;17.068;2024-01-30T16:33:49;17.50;;;8.30;;
77217;SDS011;66214;51.302;17.068;2024-01-30T16:36:19;19.60;;;8.00;;
77217;SDS011;66214;51.302;17.068;2024-01-30T16:38:49;20.10;;;8.20;;
77217;SDS011;66214;51.302;17.068;2024-01-30T16:41:17;23.30;;;8.20;;
77217;SDS011;66214;51.302;17.068;2024-01-30T16:43:46;15.60;;;7.80;;
77217;SDS011;66214;51.302;17.068;2024-01-30T16:46:15;25.60;;;8.90;;
77217;SDS011;66214;51.302;17.068;2024-01-30T16:48:46;24.00;;;10.10;;
77217;SDS011;66214;51.302;17.068;2024-01-30T16:51:15;25.00;;;11.40;;
77217;SDS011;66214;51.302;17.068;2024-01-30T16:53:44;25.10;;;10.50;;
77217;SDS011;66214;51.302;17.068;2024-01-30T16:56:13;23.00;;;9.60;;
77217;SDS011;66214;51.302;17.068;2024-01-30T16:58:41;24.40;;;10.20;;
77217;SDS011;66214;51.302;17.068;2024-01-30T17:03:45;26.00;;;11.60;;
77217;SDS011;66214;51.302;17.068;2024-01-30T17:06:13;36.30;;;13.50;;
77217;SDS011;66214;51.302;17.068;2024-01-30T17:08:42;49.00;;;18.10;;
77217;SDS011;66214;51.302;17.068;2024-01-30T17:11:10;39.30;;;16.20;;
77217;SDS011;66214;51.302;17.068;2024-01-30T17:13:38;22.90;;;10.30;;
77217;SDS011;66214;51.302;17.068;2024-01-30T17:16:07;23.60;;;10.20;;
77217;SDS011;66214;51.302;17.068;2024-01-30T17:18:35;26.80;;;12.40;;
77217;SDS011;66214;51.302;17.068;2024-01-30T17:21:04;27.10;;;11.80;;
77217;SDS011;66214;51.302;17.068;2024-01-30T17:23:32;21.50;;;10.80;;
77217;SDS011;66214;51.302;17.068;2024-01-30T17:26:02;26.20;;;10.60;;
77217;SDS011;66214;51.302;17.068;2024-01-30T17:28:30;24.50;;;11.10;;
77217;SDS011;66214;51.302;17.068;2024-01-30T17:30:58;22.10;;;10.60;;
77217;SDS011;66214;51.302;17.068;2024-01-30T17:33:27;23.70;;;10.80;;
77217;SDS011;66214;51.302;17.068;2024-01-30T17:35:55;26.70;;;11.70;;
77217;SDS011;66214;51.302;17.068;2024-01-30T17:38:23;26.50;;;11.80;;
77217;SDS011;66214;51.302;17.068;2024-01-30T17:40:52;25.20;;;11.00;;
77217;SDS011;66214;51.302;17.068;2024-01-30T17:43:21;18.40;;;8.40;;
77217;SDS011;66214;51.302;17.068;2024-01-30T17:45:49;23.40;;;10.80;;
77217;SDS011;66214;51.302;17.068;2024-01-30T17:48:17;24.00;;;10.80;;
77217;SDS011;66214;51.302;17.068;2024-01-30T17:50:45;25.20;;;10.90;;
77217;SDS011;66214;51.302;17.068;2024-01-30T17:53:13;13.50;;;5.40;;
77217;SDS011;66214;51.302;17.068;2024-01-30T17:55:42;23.30;;;9.40;;
77217;SDS011;66214;51.302;17.068;2024-01-30T17:58:10;25.30;;;11.40;;
77217;SDS011;66214;51.302;17.068;2024-01-30T18:00:38;16.10;;;6.90;;
77217;SDS011;66214;51.302;17.068;2024-01-30T18:03:06;19.20;;;8.30;;
77217;SDS011;66214;51.302;17.068;2024-01-30T18:05:35;20.10;;;7.90;;
77217;SDS011;66214;51.302;17.068;2024-01-30T18:08:04;14.60;;;5.90;;
77217;SDS011;66214;51.302;17.068;2024-01-30T18:10:34;16.70;;;6.90;;
77217;SDS011;66214;51.302;17.068;2024-01-30T18:13:04;21.00;;;9.10;;
77217;SDS011;66214;51.302;17.068;2024-01-30T18:15:33;18.80;;;8.90;;
77217;SDS011;66214;51.302;17.068;2024-01-30T18:18:02;20.40;;;8.70;;
77217;SDS011;66214;51.302;17.068;2024-01-30T18:20:31;13.80;;;6.20;;
77217;SDS011;66214;51.302;17.068;2024-01-30T18:23:00;17.30;;;8.20;;
77217;SDS011;66214;51.302;17.068;2024-01-30T18:25:28;19.60;;;9.50;;
77217;SDS011;66214;51.302;17.068;2024-01-30T18:27:56;14.90;;;6.50;;
77217;SDS011;66214;51.302;17.068;2024-01-30T18:30:25;18.90;;;7.90;;
77217;SDS011;66214;51.302;17.068;2024-01-30T18:32:53;16.90;;;6.80;;
77217;SDS011;66214;51.302;17.068;2024-01-30T18:38:42;19.00;;;8.10;;
77217;SDS011;66214;51.302;17.068;2024-01-30T18:41:10;18.30;;;8.00;;
77217;SDS011;66214;51.302;17.068;2024-01-30T18:43:39;19.10;;;8.40;;
77217;SDS011;66214;51.302;17.068;2024-01-30T18:46:09;16.70;;;8.30;;
77217;SDS011;66214;51.302;17.068;2024-01-30T18:48:38;18.00;;;7.30;;
77217;SDS011;66214;51.302;17.068;2024-01-30T18:51:07;17.80;;;7.90;;
77217;SDS011;66214;51.302;17.068;2024-01-30T18:53:35;17.30;;;8.00;;
77217;SDS011;66214;51.302;17.068;2024-01-30T18:56:04;19.60;;;9.80;;
77217;SDS011;66214;51.302;17.068;2024-01-30T18:58:33;15.20;;;6.60;;
77217;SDS011;66214;51.302;17.068;2024-01-30T19:01:01;19.40;;;9.30;;
77217;SDS011;66214;51.302;17.068;2024-01-30T19:03:30;17.40;;;7.50;;
77217;SDS011;66214;51.302;17.068;2024-01-30T19:05:58;15.30;;;7.10;;
77217;SDS011;66214;51.302;17.068;2024-01-30T19:08:27;17.30;;;7.70;;
77217;SDS011;66214;51.302;17.068;2024-01-30T19:10:55;15.00;;;7.60;;
77217;SDS011;66214;51.302;17.068;2024-01-30T19:13:23;15.30;;;7.90;;
77217;SDS011;66214;51.302;17.068;2024-01-30T19:15:51;14.50;;;6.30;;